sensor_id;sensor_type;location;lat;lon;timestamp;pressure;altitude;pressure_sealevel;temperature;humidity
54329;BME280;40710;51.120;13.136;2023-06-22T00:01:39;99699.81;;;23.46;63.95
54329;BME280;40710;51.120;13.136;2023-06-22T00:04:03;99702.03;;;23.51;63.54
54329;BME280;40710;51.120;13.136;2023-06-22T00:06:28;99703.50;;;23.45;63.99
54329;BME280;40710;51.120;13.136;2023-06-22T00:08:52;99718.53;;;23.02;65.26
54329;BME280;40710;51.120;13.136;2023-06-22T00:11:17;99714.84;;;23.03;66.04
54329;BME280;40710;51.120;13.136;2023-06-22T00:13:41;99706.09;;;23.11;65.16
54329;BME280;40710;51.120;13.136;2023-06-22T00:16:06;99701.78;;;23.18;64.81
54329;BME280;40710;51.120;13.136;2023-06-22T00:18:31;99700.41;;;23.32;64.30
54329;BME280;40710;51.120;13.136;2023-06-22T00:20:57;99705.13;;;23.38;64.23
54329;BME280;40710;51.120;13.136;2023-06-22T00:23:24;99700.66;;;23.73;63.16
54329;BME280;40710;51.120;13.136;2023-06-22T00:25:49;99690.00;;;24.07;61.77
54329;BME280;40710;51.120;13.136;2023-06-22T00:28:13;99699.75;;;23.38;63.37
54329;BME280;40710;51.120;13.136;2023-06-22T00:30:38;99714.22;;;22.73;65.49
54329;BME280;40710;51.120;13.136;2023-06-22T00:33:03;99704.31;;;23.19;64.52
54329;BME280;40710;51.120;13.136;2023-06-22T00:35:28;99704.66;;;23.25;63.70
54329;BME280;40710;51.120;13.136;2023-06-22T00:37:53;99695.38;;;23.11;64.11
54329;BME280;40710;51.120;13.136;2023-06-22T00:40:24;99696.66;;;23.07;64.49
54329;BME280;40710;51.120;13.136;2023-06-22T00:42:49;99695.38;;;23.55;63.16
54329;BME280;40710;51.120;13.136;2023-06-22T00:45:13;99687.09;;;24.01;61.28
54329;BME280;40710;51.120;13.136;2023-06-22T00:47:38;99684.06;;;23.95;61.20
54329;BME280;40710;51.120;13.136;2023-06-22T00:50:05;99679.78;;;24.11;60.43
54329;BME280;40710;51.120;13.136;2023-06-22T00:52:32;99687.47;;;24.06;60.83
54329;BME280;40710;51.120;13.136;2023-06-22T00:54:59;99692.06;;;23.87;61.18
54329;BME280;40710;51.120;13.136;2023-06-22T00:57:26;99698.41;;;23.34;62.78
54329;BME280;40710;51.120;13.136;2023-06-22T00:59:52;99690.22;;;23.44;62.51
54329;BME280;40710;51.120;13.136;2023-06-22T01:02:16;99682.06;;;23.97;60.49
54329;BME280;40710;51.120;13.136;2023-06-22T01:04:41;99676.81;;;23.62;61.10
54329;BME280;40710;51.120;13.136;2023-06-22T01:10:27;99686.09;;;23.49;62.17
54329;BME280;40710;51.120;13.136;2023-06-22T01:12:55;99686.56;;;23.45;62.07
54329;BME280;40710;51.120;13.136;2023-06-22T01:15:30;99691.50;;;22.95;63.22
54329;BME280;40710;51.120;13.136;2023-06-22T01:17:59;99688.03;;;23.03;62.90
54329;BME280;40710;51.120;13.136;2023-06-22T01:20:25;99688.75;;;23.05;63.48
54329;BME280;40710;51.120;13.136;2023-06-22T01:25:38;99675.91;;;23.35;62.39
54329;BME280;40710;51.120;13.136;2023-06-22T01:28:34;99674.88;;;23.28;62.22
54329;BME280;40710;51.120;13.136;2023-06-22T01:31:01;99669.28;;;23.65;61.37
54329;BME280;40710;51.120;13.136;2023-06-22T01:33:33;99668.38;;;23.56;61.94
54329;BME280;40710;51.120;13.136;2023-06-22T01:35:59;99670.94;;;23.66;61.30
54329;BME280;40710;51.120;13.136;2023-06-22T01:40:50;99681.94;;;23.29;63.20
54329;BME280;40710;51.120;13.136;2023-06-22T01:43:15;99676.00;;;23.43;62.51
54329;BME280;40710;51.120;13.136;2023-06-22T01:45:41;99668.03;;;23.59;61.64
54329;BME280;40710;51.120;13.136;2023-06-22T01:48:06;99671.38;;;23.53;61.63
54329;BME280;40710;51.120;13.136;2023-06-22T01:50:31;99673.16;;;23.45;62.19
54329;BME280;40710;51.120;13.136;2023-06-22T01:52:56;99692.75;;;22.37;65.56
54329;BME280;40710;51.120;13.136;2023-06-22T01:55:20;99669.41;;;23.37;62.36
54329;BME280;40710;51.120;13.136;2023-06-22T01:57:45;99668.81;;;23.26;62.79
54329;BME280;40710;51.120;13.136;2023-06-22T02:00:14;99666.06;;;23.17;62.64
54329;BME280;40710;51.120;13.136;2023-06-22T02:02:52;99665.38;;;23.15;62.82
54329;BME280;40710;51.120;13.136;2023-06-22T02:05:19;99672.66;;;23.05;62.91
54329;BME280;40710;51.120;13.136;2023-06-22T02:07:59;99673.88;;;22.93;63.20
54329;BME280;40710;51.120;13.136;2023-06-22T02:10:27;99680.00;;;22.85;63.50
54329;BME280;40710;51.120;13.136;2023-06-22T02:12:54;99666.16;;;22.90;63.15
54329;BME280;40710;51.120;13.136;2023-06-22T02:15:21;99675.88;;;22.91;62.88
54329;BME280;40710;51.120;13.136;2023-06-22T02:17:47;99680.94;;;22.76;63.22
54329;BME280;40710;51.120;13.136;2023-06-22T02:20:13;99683.91;;;22.91;62.90
54329;BME280;40710;51.120;13.136;2023-06-22T02:22:38;99687.91;;;23.22;61.87
54329;BME280;40710;51.120;13.136;2023-06-22T02:25:02;99688.44;;;22.90;63.15
54329;BME280;40710;51.120;13.136;2023-06-22T02:27:27;99686.59;;;23.09;62.19
54329;BME280;40710;51.120;13.136;2023-06-22T02:29:52;99687.06;;;23.04;62.26
54329;BME280;40710;51.120;13.136;2023-06-22T02:32:16;99693.31;;;22.95;62.80
54329;BME280;40710;51.120;13.136;2023-06-22T02:34:42;99693.13;;;23.06;61.95
54329;BME280;40710;51.120;13.136;2023-06-22T02:37:07;99684.50;;;23.38;61.27
54329;BME280;40710;51.120;13.136;2023-06-22T02:39:32;99693.69;;;23.00;61.95
54329;BME280;40710;51.120;13.136;2023-06-22T02:41:56;99691.72;;;23.02;62.33
54329;BME280;40710;51.120;13.136;2023-06-22T02:44:21;99691.88;;;23.00;61.93
54329;BME280;40710;51.120;13.136;2023-06-22T02:46:47;99694.53;;;22.64;63.43
54329;BME280;40710;51.120;13.136;2023-06-22T02:49:11;99693.16;;;22.60;63.73
54329;BME280;40710;51.120;13.136;2023-06-22T02:51:39;99679.28;;;23.11;61.79
54329;BME280;40710;51.120;13.136;2023-06-22T02:54:04;99683.91;;;22.55;63.26
54329;BME280;40710;51.120;13.136;2023-06-22T02:56:28;99672.66;;;22.69;63.00
54329;BME280;40710;51.120;13.136;2023-06-22T02:58:54;99670.28;;;22.84;62.12
54329;BME280;40710;51.120;13.136;2023-06-22T03:01:24;99671.88;;;22.03;64.45
54329;BME280;40710;51.120;13.136;2023-06-22T03:03:49;99674.78;;;22.10;64.69
54329;BME280;40710;51.120;13.136;2023-06-22T03:06:14;99663.53;;;22.62;62.58
54329;BME280;40710;51.120;13.136;2023-06-22T03:08:39;99660.63;;;22.73;62.48
54329;BME280;40710;51.120;13.136;2023-06-22T03:11:03;99677.75;;;22.44;63.14
54329;BME280;40710;51.120;13.136;2023-06-22T03:13:28;99677.75;;;22.44;62.60
54329;BME280;40710;51.120;13.136;2023-06-22T03:15:52;99670.38;;;22.74;62.47
54329;BME280;40710;51.120;13.136;2023-06-22T03:18:17;99659.50;;;22.94;61.48
54329;BME280;40710;51.120;13.136;2023-06-22T03:20:42;99655.66;;;22.78;61.58
54329;BME280;40710;51.120;13.136;2023-06-22T03:23:06;99654.59;;;22.71;61.78
54329;BME280;40710;51.120;13.136;2023-06-22T03:25:31;99653.28;;;22.93;61.09
54329;BME280;40710;51.120;13.136;2023-06-22T03:27:55;99657.41;;;22.88;61.30
54329;BME280;40710;51.120;13.136;2023-06-22T03:30:20;99649.31;;;22.79;61.27
54329;BME280;40710;51.120;13.136;2023-06-22T03:32:44;99646.84;;;23.04;60.90
54329;BME280;40710;51.120;13.136;2023-06-22T03:35:10;99658.63;;;22.02;63.34
54329;BME280;40710;51.120;13.136;2023-06-22T03:37:38;99645.19;;;22.67;61.94
54329;BME280;40710;51.120;13.136;2023-06-22T03:40:02;99658.75;;;22.38;62.21
54329;BME280;40710;51.120;13.136;2023-06-22T03:42:30;99658.38;;;22.23;63.31
54329;BME280;40710;51.120;13.136;2023-06-22T03:44:54;99665.44;;;22.24;63.06
54329;BME280;40710;51.120;13.136;2023-06-22T03:47:19;99663.50;;;22.16;63.54
54329;BME280;40710;51.120;13.136;2023-06-22T03:49:43;99675.16;;;21.97;64.03
54329;BME280;40710;51.120;13.136;2023-06-22T03:52:08;99671.34;;;22.55;62.07
54329;BME280;40710;51.120;13.136;2023-06-22T03:54:32;99675.06;;;22.44;62.57
54329;BME280;40710;51.120;13.136;2023-06-22T03:56:58;99684.38;;;22.13;63.50
54329;BME280;40710;51.120;13.136;2023-06-22T03:59:23;99671.63;;;22.70;62.23
54329;BME280;40710;51.120;13.136;2023-06-22T04:01:47;99678.16;;;22.68;61.73
54329;BME280;40710;51.120;13.136;2023-06-22T04:04:12;99665.97;;;22.55;62.21
54329;BME280;40710;51.120;13.136;2023-06-22T04:06:37;99678.47;;;22.64;61.76
54329;BME280;40710;51.120;13.136;2023-06-22T04:09:01;99682.16;;;22.63;62.21
54329;BME280;40710;51.120;13.136;2023-06-22T04:11:26;99684.28;;;22.78;61.49
54329;BME280;40710;51.120;13.136;2023-06-22T04:13:51;99696.09;;;22.67;62.37
54329;BME280;40710;51.120;13.136;2023-06-22T04:16:15;99694.78;;;22.89;61.66
54329;BME280;40710;51.120;13.136;2023-06-22T04:18:40;99698.69;;;22.95;61.19
54329;BME280;40710;51.120;13.136;2023-06-22T04:21:06;99711.28;;;23.30;60.61
54329;BME280;40710;51.120;13.136;2023-06-22T04:23:30;99715.63;;;23.31;60.46
54329;BME280;40710;51.120;13.136;2023-06-22T04:25:55;99709.75;;;23.54;59.75
54329;BME280;40710;51.120;13.136;2023-06-22T04:28:20;99716.53;;;23.58;59.73
54329;BME280;40710;51.120;13.136;2023-06-22T04:30:45;99722.59;;;23.24;60.88
54329;BME280;40710;51.120;13.136;2023-06-22T04:33:16;99733.81;;;23.19;61.25
54329;BME280;40710;51.120;13.136;2023-06-22T04:35:41;99727.59;;;23.63;59.88
54329;BME280;40710;51.120;13.136;2023-06-22T04:38:06;99726.19;;;23.95;58.77
54329;BME280;40710;51.120;13.136;2023-06-22T04:40:30;99731.13;;;23.82;59.21
54329;BME280;40710;51.120;13.136;2023-06-22T04:42:55;99736.47;;;23.82;59.09
54329;BME280;40710;51.120;13.136;2023-06-22T04:45:20;99741.78;;;24.00;58.77
54329;BME280;40710;51.120;13.136;2023-06-22T04:47:45;99751.38;;;24.02;58.82
54329;BME280;40710;51.120;13.136;2023-06-22T04:50:10;99746.91;;;24.11;59.01
54329;BME280;40710;51.120;13.136;2023-06-22T04:52:34;99756.63;;;24.12;58.43
54329;BME280;40710;51.120;13.136;2023-06-22T04:54:59;99755.47;;;24.14;58.69
54329;BME280;40710;51.120;13.136;2023-06-22T04:57:24;99753.53;;;24.25;58.78
54329;BME280;40710;51.120;13.136;2023-06-22T04:59:56;99767.69;;;24.43;58.18
54329;BME280;40710;51.120;13.136;2023-06-22T05:02:21;99763.34;;;24.42;58.51
54329;BME280;40710;51.120;13.136;2023-06-22T05:04:46;99755.78;;;24.46;58.21
54329;BME280;40710;51.120;13.136;2023-06-22T05:07:15;99748.88;;;24.43;58.50
54329;BME280;40710;51.120;13.136;2023-06-22T05:09:40;99746.34;;;24.33;58.99
54329;BME280;40710;51.120;13.136;2023-06-22T05:12:04;99740.56;;;24.20;59.45
54329;BME280;40710;51.120;13.136;2023-06-22T05:14:29;99748.78;;;23.92;60.83
54329;BME280;40710;51.120;13.136;2023-06-22T05:16:54;99743.50;;;24.43;60.11
54329;BME280;40710;51.120;13.136;2023-06-22T05:19:22;99735.28;;;24.79;58.79
54329;BME280;40710;51.120;13.136;2023-06-22T05:21:47;99733.75;;;24.77;58.86
54329;BME280;40710;51.120;13.136;2023-06-22T05:24:11;99735.44;;;24.86;58.46
54329;BME280;40710;51.120;13.136;2023-06-22T05:26:36;99735.63;;;25.01;57.84
54329;BME280;40710;51.120;13.136;2023-06-22T05:29:02;99723.22;;;25.24;57.63
54329;BME280;40710;51.120;13.136;2023-06-22T05:31:27;99742.66;;;24.85;58.82
54329;BME280;40710;51.120;13.136;2023-06-22T05:33:52;99731.06;;;24.77;59.38
54329;BME280;40710;51.120;13.136;2023-06-22T05:36:17;99723.66;;;24.79;59.13
54329;BME280;40710;51.120;13.136;2023-06-22T05:38:44;99701.53;;;25.59;57.18
54329;BME280;40710;51.120;13.136;2023-06-22T05:41:08;99697.25;;;25.89;56.14
54329;BME280;40710;51.120;13.136;2023-06-22T05:43:33;99692.19;;;26.11;55.68
54329;BME280;40710;51.120;13.136;2023-06-22T05:45:59;99682.72;;;26.54;54.95
54329;BME280;40710;51.120;13.136;2023-06-22T05:48:25;99687.09;;;26.55;55.26
54329;BME280;40710;51.120;13.136;2023-06-22T05:50:49;99674.88;;;26.36;56.25
54329;BME280;40710;51.120;13.136;2023-06-22T05:53:14;99662.66;;;26.65;55.19
54329;BME280;40710;51.120;13.136;2023-06-22T05:55:39;99642.16;;;26.16;56.56
54329;BME280;40710;51.120;13.136;2023-06-22T05:58:04;99610.16;;;26.21;56.29
54329;BME280;40710;51.120;13.136;2023-06-22T06:00:28;99584.59;;;26.72;55.01
54329;BME280;40710;51.120;13.136;2023-06-22T06:02:53;99568.72;;;27.45;52.80
54329;BME280;40710;51.120;13.136;2023-06-22T06:05:17;99581.75;;;27.71;52.26
54329;BME280;40710;51.120;13.136;2023-06-22T06:07:43;99588.72;;;27.80;51.42
54329;BME280;40710;51.120;13.136;2023-06-22T06:10:08;99595.63;;;27.83;52.46
54329;BME280;40710;51.120;13.136;2023-06-22T06:12:32;99588.25;;;27.77;51.74
54329;BME280;40710;51.120;13.136;2023-06-22T06:14:57;99578.88;;;28.24;50.25
54329;BME280;40710;51.120;13.136;2023-06-22T06:17:22;99567.78;;;28.34;50.83
54329;BME280;40710;51.120;13.136;2023-06-22T06:19:46;99561.91;;;28.52;49.95
54329;BME280;40710;51.120;13.136;2023-06-22T06:22:11;99574.75;;;27.77;51.13
54329;BME280;40710;51.120;13.136;2023-06-22T06:24:35;99573.72;;;28.07;50.64
54329;BME280;40710;51.120;13.136;2023-06-22T06:27:00;99569.59;;;28.12;50.59
54329;BME280;40710;51.120;13.136;2023-06-22T06:29:24;99574.72;;;28.43;50.15
54329;BME280;40710;51.120;13.136;2023-06-22T06:31:50;99577.34;;;28.15;50.34
54329;BME280;40710;51.120;13.136;2023-06-22T06:34:14;99580.75;;;28.23;50.17
54329;BME280;40710;51.120;13.136;2023-06-22T06:36:39;99586.53;;;28.78;49.49
54329;BME280;40710;51.120;13.136;2023-06-22T06:39:03;99602.00;;;28.26;52.81
54329;BME280;40710;51.120;13.136;2023-06-22T06:41:28;99606.19;;;28.65;50.26
54329;BME280;40710;51.120;13.136;2023-06-22T06:43:52;99604.81;;;28.76;49.46
54329;BME280;40710;51.120;13.136;2023-06-22T06:46:17;99609.72;;;28.88;49.17
54329;BME280;40710;51.120;13.136;2023-06-22T06:48:43;99607.50;;;29.19;48.93
54329;BME280;40710;51.120;13.136;2023-06-22T06:51:08;99605.66;;;29.55;48.45
54329;BME280;40710;51.120;13.136;2023-06-22T06:53:37;99615.75;;;29.39;48.95
54329;BME280;40710;51.120;13.136;2023-06-22T06:56:01;99610.06;;;29.63;48.38
54329;BME280;40710;51.120;13.136;2023-06-22T06:58:26;99598.22;;;29.64;47.60
54329;BME280;40710;51.120;13.136;2023-06-22T07:00:51;99603.22;;;29.67;46.51
54329;BME280;40710;51.120;13.136;2023-06-22T07:03:15;99598.75;;;29.81;46.91
54329;BME280;40710;51.120;13.136;2023-06-22T07:05:40;99601.84;;;29.77;47.07
54329;BME280;40710;51.120;13.136;2023-06-22T07:08:04;99608.16;;;29.56;47.91
54329;BME280;40710;51.120;13.136;2023-06-22T07:10:29;99614.09;;;30.15;48.01
54329;BME280;40710;51.120;13.136;2023-06-22T07:12:53;99611.28;;;29.88;47.50
54329;BME280;40710;51.120;13.136;2023-06-22T07:15:18;99620.63;;;29.79;48.39
54329;BME280;40710;51.120;13.136;2023-06-22T07:17:43;99608.44;;;30.10;47.73
54329;BME280;40710;51.120;13.136;2023-06-22T07:20:08;99608.31;;;30.31;46.58
54329;BME280;40710;51.120;13.136;2023-06-22T07:22:34;99628.75;;;29.22;49.41
54329;BME280;40710;51.120;13.136;2023-06-22T07:24:59;99611.88;;;30.32;46.57
54329;BME280;40710;51.120;13.136;2023-06-22T07:27:23;99622.09;;;29.53;48.80
54329;BME280;40710;51.120;13.136;2023-06-22T07:29:49;99604.34;;;29.44;47.12
54329;BME280;40710;51.120;13.136;2023-06-22T07:32:13;99600.84;;;29.85;47.51
54329;BME280;40710;51.120;13.136;2023-06-22T07:34:38;99602.38;;;29.66;48.08
54329;BME280;40710;51.120;13.136;2023-06-22T07:37:02;99598.91;;;30.27;46.58
54329;BME280;40710;51.120;13.136;2023-06-22T07:39:28;99601.53;;;30.69;47.31
54329;BME280;40710;51.120;13.136;2023-06-22T07:41:53;99586.72;;;30.91;45.17
54329;BME280;40710;51.120;13.136;2023-06-22T07:44:18;99594.25;;;30.83;45.26
54329;BME280;40710;51.120;13.136;2023-06-22T07:46:42;99603.41;;;30.88;45.93
54329;BME280;40710;51.120;13.136;2023-06-22T07:49:07;99595.94;;;31.51;44.80
54329;BME280;40710;51.120;13.136;2023-06-22T07:51:32;99595.84;;;31.71;45.22
54329;BME280;40710;51.120;13.136;2023-06-22T07:53:57;99589.81;;;31.62;44.29
54329;BME280;40710;51.120;13.136;2023-06-22T07:56:21;99587.34;;;31.47;43.55
54329;BME280;40710;51.120;13.136;2023-06-22T07:58:47;99584.44;;;31.35;44.62
54329;BME280;40710;51.120;13.136;2023-06-22T08:01:12;99586.06;;;31.63;43.44
54329;BME280;40710;51.120;13.136;2023-06-22T08:03:37;99586.91;;;31.43;44.72
54329;BME280;40710;51.120;13.136;2023-06-22T08:06:01;99579.31;;;31.79;43.42
54329;BME280;40710;51.120;13.136;2023-06-22T08:08:26;99582.25;;;31.77;44.13
54329;BME280;40710;51.120;13.136;2023-06-22T08:10:50;99578.06;;;31.75;44.18
54329;BME280;40710;51.120;13.136;2023-06-22T08:13:15;99565.53;;;31.80;42.58
54329;BME280;40710;51.120;13.136;2023-06-22T08:15:40;99572.34;;;30.84;43.82
54329;BME280;40710;51.120;13.136;2023-06-22T08:18:05;99567.53;;;31.06;44.03
54329;BME280;40710;51.120;13.136;2023-06-22T08:20:29;99563.47;;;31.69;42.21
54329;BME280;40710;51.120;13.136;2023-06-22T08:22:55;99569.16;;;31.47;43.36
54329;BME280;40710;51.120;13.136;2023-06-22T08:25:20;99570.03;;;32.00;42.01
54329;BME280;40710;51.120;13.136;2023-06-22T08:27:46;99576.09;;;31.17;43.47
54329;BME280;40710;51.120;13.136;2023-06-22T08:30:11;99560.63;;;31.24;43.03
54329;BME280;40710;51.120;13.136;2023-06-22T08:32:36;99560.09;;;31.80;43.25
54329;BME280;40710;51.120;13.136;2023-06-22T08:35:00;99558.69;;;31.58;43.00
54329;BME280;40710;51.120;13.136;2023-06-22T08:37:25;99565.47;;;31.08;43.58
54329;BME280;40710;51.120;13.136;2023-06-22T08:39:54;99549.81;;;31.89;42.17
54329;BME280;40710;51.120;13.136;2023-06-22T08:42:19;99549.84;;;31.82;42.49
54329;BME280;40710;51.120;13.136;2023-06-22T08:44:43;99552.16;;;31.72;42.05
54329;BME280;40710;51.120;13.136;2023-06-22T08:47:08;99545.03;;;31.78;42.54
54329;BME280;40710;51.120;13.136;2023-06-22T08:49:32;99546.84;;;31.91;41.90
54329;BME280;40710;51.120;13.136;2023-06-22T08:51:57;99554.56;;;31.94;41.86
54329;BME280;40710;51.120;13.136;2023-06-22T08:54:22;99547.66;;;32.36;40.97
54329;BME280;40710;51.120;13.136;2023-06-22T08:56:47;99537.97;;;32.79;40.30
54329;BME280;40710;51.120;13.136;2023-06-22T08:59:11;99543.50;;;32.66;41.29
54329;BME280;40710;51.120;13.136;2023-06-22T09:01:36;99529.75;;;33.04;38.66
54329;BME280;40710;51.120;13.136;2023-06-22T09:04:00;99524.59;;;33.21;38.53
54329;BME280;40710;51.120;13.136;2023-06-22T09:06:25;99532.00;;;33.14;39.07
54329;BME280;40710;51.120;13.136;2023-06-22T09:08:50;99525.44;;;33.22;38.01
54329;BME280;40710;51.120;13.136;2023-06-22T09:11:14;99532.84;;;33.14;38.96
54329;BME280;40710;51.120;13.136;2023-06-22T09:13:39;99521.50;;;33.54;38.27
54329;BME280;40710;51.120;13.136;2023-06-22T09:16:04;99523.69;;;33.46;38.28
54329;BME280;40710;51.120;13.136;2023-06-22T09:18:28;99528.41;;;33.76;37.42
54329;BME280;40710;51.120;13.136;2023-06-22T09:20:53;99523.06;;;33.62;37.49
54329;BME280;40710;51.120;13.136;2023-06-22T09:23:17;99523.16;;;33.56;36.73
54329;BME280;40710;51.120;13.136;2023-06-22T09:25:42;99517.81;;;33.67;37.35
54329;BME280;40710;51.120;13.136;2023-06-22T09:28:06;99515.19;;;33.91;37.23
54329;BME280;40710;51.120;13.136;2023-06-22T09:30:31;99514.72;;;33.94;36.59
54329;BME280;40710;51.120;13.136;2023-06-22T09:32:55;99516.81;;;33.80;35.95
54329;BME280;40710;51.120;13.136;2023-06-22T09:35:20;99515.88;;;34.17;36.48
54329;BME280;40710;51.120;13.136;2023-06-22T09:37:44;99506.56;;;34.36;35.38
54329;BME280;40710;51.120;13.136;2023-06-22T09:40:09;99502.69;;;34.44;35.64
54329;BME280;40710;51.120;13.136;2023-06-22T09:42:35;99510.41;;;34.17;35.46
54329;BME280;40710;51.120;13.136;2023-06-22T09:45:00;99499.03;;;34.62;35.18
54329;BME280;40710;51.120;13.136;2023-06-22T09:47:26;99499.03;;;34.62;34.17
54329;BME280;40710;51.120;13.136;2023-06-22T09:49:50;99490.22;;;34.06;35.22
54329;BME280;40710;51.120;13.136;2023-06-22T09:52:15;99490.13;;;34.55;34.54
54329;BME280;40710;51.120;13.136;2023-06-22T09:54:40;99483.50;;;34.08;36.28
54329;BME280;40710;51.120;13.136;2023-06-22T09:57:05;99495.44;;;34.50;35.16
54329;BME280;40710;51.120;13.136;2023-06-22T09:59:29;99483.38;;;34.69;34.81
54329;BME280;40710;51.120;13.136;2023-06-22T10:01:54;99480.66;;;35.28;34.71
54329;BME280;40710;51.120;13.136;2023-06-22T10:04:18;99477.19;;;35.09;35.08
54329;BME280;40710;51.120;13.136;2023-06-22T10:06:43;99484.94;;;35.12;34.80
54329;BME280;40710;51.120;13.136;2023-06-22T10:09:08;99484.09;;;35.24;34.23
54329;BME280;40710;51.120;13.136;2023-06-22T10:11:32;99474.50;;;34.86;34.43
54329;BME280;40710;51.120;13.136;2023-06-22T10:13:59;99476.25;;;35.15;34.76
54329;BME280;40710;51.120;13.136;2023-06-22T10:16:30;99475.97;;;35.40;34.31
54329;BME280;40710;51.120;13.136;2023-06-22T10:18:55;99475.88;;;35.76;33.38
54329;BME280;40710;51.120;13.136;2023-06-22T10:21:19;99479.56;;;35.29;34.77
54329;BME280;40710;51.120;13.136;2023-06-22T10:23:44;99472.34;;;35.64;33.66
54329;BME280;40710;51.120;13.136;2023-06-22T10:26:08;99465.81;;;34.89;34.26
54329;BME280;40710;51.120;13.136;2023-06-22T10:28:33;99466.75;;;35.06;34.30
54329;BME280;40710;51.120;13.136;2023-06-22T10:30:57;99458.94;;;34.74;34.28
54329;BME280;40710;51.120;13.136;2023-06-22T10:33:22;99455.47;;;35.67;33.14
54329;BME280;40710;51.120;13.136;2023-06-22T10:35:46;99457.94;;;35.68;33.01
54329;BME280;40710;51.120;13.136;2023-06-22T10:38:11;99458.66;;;35.11;33.88
54329;BME280;40710;51.120;13.136;2023-06-22T10:40:35;99455.34;;;35.62;33.62
54329;BME280;40710;51.120;13.136;2023-06-22T10:43:00;99457.31;;;34.73;34.77
54329;BME280;40710;51.120;13.136;2023-06-22T10:45:24;99433.75;;;34.60;33.94
54329;BME280;40710;51.120;13.136;2023-06-22T10:47:49;99443.22;;;35.29;33.66
54329;BME280;40710;51.120;13.136;2023-06-22T10:50:13;99438.56;;;35.70;33.15
54329;BME280;40710;51.120;13.136;2023-06-22T10:52:39;99440.44;;;35.81;33.22
54329;BME280;40710;51.120;13.136;2023-06-22T10:55:04;99436.34;;;36.12;32.83
54329;BME280;40710;51.120;13.136;2023-06-22T10:57:29;99438.91;;;36.19;32.77
54329;BME280;40710;51.120;13.136;2023-06-22T10:59:53;99437.13;;;35.79;33.07
54329;BME280;40710;51.120;13.136;2023-06-22T11:02:18;99452.72;;;35.78;34.96
54329;BME280;40710;51.120;13.136;2023-06-22T11:04:42;99459.56;;;33.80;37.95
54329;BME280;40710;51.120;13.136;2023-06-22T11:07:07;99438.97;;;35.09;35.02
54329;BME280;40710;51.120;13.136;2023-06-22T11:09:31;99446.56;;;34.48;35.46
54329;BME280;40710;51.120;13.136;2023-06-22T11:11:56;99439.84;;;35.79;33.92
54329;BME280;40710;51.120;13.136;2023-06-22T11:14:21;99434.88;;;35.76;34.12
54329;BME280;40710;51.120;13.136;2023-06-22T11:16:46;99416.69;;;35.70;34.25
54329;BME280;40710;51.120;13.136;2023-06-22T11:19:10;99428.09;;;35.38;34.83
54329;BME280;40710;51.120;13.136;2023-06-22T11:21:35;99416.81;;;35.92;34.27
54329;BME280;40710;51.120;13.136;2023-06-22T11:23:59;99423.06;;;36.55;33.82
54329;BME280;40710;51.120;13.136;2023-06-22T11:26:24;99414.81;;;35.42;34.39
54329;BME280;40710;51.120;13.136;2023-06-22T11:28:51;99414.28;;;36.19;33.41
54329;BME280;40710;51.120;13.136;2023-06-22T11:31:16;99411.97;;;36.45;32.29
54329;BME280;40710;51.120;13.136;2023-06-22T11:33:40;99398.09;;;36.85;32.39
54329;BME280;40710;51.120;13.136;2023-06-22T11:36:05;99402.84;;;36.56;32.87
54329;BME280;40710;51.120;13.136;2023-06-22T11:38:30;99395.19;;;36.58;32.67
54329;BME280;40710;51.120;13.136;2023-06-22T11:40:55;99418.09;;;36.18;33.61
54329;BME280;40710;51.120;13.136;2023-06-22T11:43:19;99401.44;;;36.20;32.43
54329;BME280;40710;51.120;13.136;2023-06-22T11:45:44;99396.59;;;36.78;33.11
54329;BME280;40710;51.120;13.136;2023-06-22T11:48:08;99391.00;;;36.89;32.68
54329;BME280;40710;51.120;13.136;2023-06-22T11:50:33;99390.94;;;37.51;31.32
54329;BME280;40710;51.120;13.136;2023-06-22T11:53:00;99379.34;;;37.43;31.31
54329;BME280;40710;51.120;13.136;2023-06-22T11:55:24;99379.34;;;36.99;31.56
54329;BME280;40710;51.120;13.136;2023-06-22T11:57:54;99377.88;;;37.63;31.69
54329;BME280;40710;51.120;13.136;2023-06-22T12:00:19;99370.00;;;37.44;31.10
54329;BME280;40710;51.120;13.136;2023-06-22T12:02:45;99372.63;;;38.16;30.14
54329;BME280;40710;51.120;13.136;2023-06-22T12:05:09;99375.91;;;37.58;30.84
54329;BME280;40710;51.120;13.136;2023-06-22T12:07:34;99360.16;;;38.03;29.88
54329;BME280;40710;51.120;13.136;2023-06-22T12:09:59;99356.13;;;37.78;30.19
54329;BME280;40710;51.120;13.136;2023-06-22T12:12:23;99366.84;;;36.86;31.60
54329;BME280;40710;51.120;13.136;2023-06-22T12:14:48;99365.25;;;37.13;31.60
54329;BME280;40710;51.120;13.136;2023-06-22T12:17:12;99359.78;;;37.89;30.92
54329;BME280;40710;51.120;13.136;2023-06-22T12:19:37;99344.94;;;38.65;29.88
54329;BME280;40710;51.120;13.136;2023-06-22T12:22:01;99344.28;;;38.10;30.10
54329;BME280;40710;51.120;13.136;2023-06-22T12:24:26;99337.97;;;38.47;29.43
54329;BME280;40710;51.120;13.136;2023-06-22T12:26:50;99334.63;;;38.40;29.40
54329;BME280;40710;51.120;13.136;2023-06-22T12:29:15;99327.16;;;37.93;29.91
54329;BME280;40710;51.120;13.136;2023-06-22T12:31:40;99334.19;;;38.58;30.40
54329;BME280;40710;51.120;13.136;2023-06-22T12:34:05;99324.13;;;38.27;30.44
54329;BME280;40710;51.120;13.136;2023-06-22T12:36:30;99322.16;;;38.22;30.63
54329;BME280;40710;51.120;13.136;2023-06-22T12:38:54;99330.47;;;37.13;31.29
54329;BME280;40710;51.120;13.136;2023-06-22T12:41:19;99327.16;;;37.93;30.53
54329;BME280;40710;51.120;13.136;2023-06-22T12:43:43;99315.28;;;38.62;29.42
54329;BME280;40710;51.120;13.136;2023-06-22T12:46:08;99308.59;;;39.06;29.25
54329;BME280;40710;51.120;13.136;2023-06-22T12:48:32;99308.47;;;38.70;30.07